»·PEaware :: UAL1586 KSLC-KDEN

UAL1586 :: KSLC-KDEN

FLIGHT INFORMATION

Flight Status: Arrived
Operator:
United Airlines
More flights by this operator :: More flights under this callsign
Pilot: Ben F. (13029)
Aircraft: BOEING 757-200
(B752)
More flights by this aircraft type
Origin: KSLC Salt Lake City Intl
United States
Destination: KDEN Denver Intl
United States
More flights between these airports :: More routes between these airports
Route: +RUGGD1 PERTY CHE KAILE2
File this flight plan on PilotEdge
Remarks: RMK / SIMBRIEF
Altitude:
(Current/Filed)
37,000ft
Speed:
(Current/Filed)
444kts
Departed: 27-Apr-19 11:55 AM
Arrived: 27-Apr-19 01:02 PM
Distance/Time
Traveled:
339nm/1:07
Distance/Time
To Go:
Arrived

Flight Plot

Page will automatically refresh every two minutes.

Flight plan parsing failed; only flown route is shown


Map Options




Map Legend


Flown Route
Filed Route
Departure Airport
Arrival Airport
Navaid (VOR, NDB)
Fix

Horizontal Profiles

Position Reports

Time Latitude Longitude Heading Altitude Ground
Speed
27-Apr-19 11:31 40.784720 -111.977515 325 4238ft 0kts
27-Apr-19 11:32 40.784720 -111.977515 325 4238ft 0kts
27-Apr-19 11:33 40.784720 -111.977515 325 4238ft 0kts
27-Apr-19 11:34 40.784720 -111.977515 325 4238ft 0kts
27-Apr-19 11:35 40.784720 -111.977515 325 4238ft 0kts
27-Apr-19 11:36 40.784720 -111.977515 325 4238ft 0kts
27-Apr-19 11:37 40.784720 -111.977515 325 4238ft 0kts
27-Apr-19 11:38 40.784720 -111.977515 325 4238ft 0kts
27-Apr-19 11:39 40.784720 -111.977515 325 4238ft 0kts
27-Apr-19 11:40 40.784720 -111.977515 325 4238ft 0kts
27-Apr-19 11:41 40.784720 -111.977515 325 4238ft 0kts
27-Apr-19 11:42 40.784720 -111.977514 325 4238ft 0kts
27-Apr-19 11:43 40.784720 -111.977514 325 4238ft 0kts
27-Apr-19 11:44 40.784464 -111.977352 358 4238ft 2kts
27-Apr-19 11:45 40.784049 -111.977798 84 4238ft 0kts
27-Apr-19 11:46 40.784047 -111.977892 88 4238ft 0kts
27-Apr-19 11:47 40.784047 -111.977892 88 4238ft 0kts
27-Apr-19 11:48 40.784238 -111.976691 51 4238ft 6kts
27-Apr-19 11:49 40.788205 -111.976893 354 4238ft 23kts
27-Apr-19 11:50 40.795846 -111.977755 355 4238ft 25kts
27-Apr-19 11:51 40.801882 -111.978462 354 4238ft 23kts
27-Apr-19 11:52 40.807383 -111.978126 66 4238ft 6kts
27-Apr-19 11:53 40.806117 -111.976767 173 4238ft 5kts
27-Apr-19 11:54 40.786968 -111.974548 174 4245ft 162kts
27-Apr-19 11:55 40.741474 -111.966492 169 6025ft 163kts
27-Apr-19 11:56 40.698218 -111.952795 167 7486ft 154kts
27-Apr-19 11:57 40.652513 -111.935594 124 8663ft 183kts
27-Apr-19 11:58 40.677548 -111.903000 321 10159ft 193kts
27-Apr-19 11:59 40.723551 -111.946744 337 11681ft 233kts
27-Apr-19 12:00 40.790532 -111.967822 350 13408ft 260kts
27-Apr-19 12:01 40.872900 -111.984505 351 13988ft 338kts
27-Apr-19 12:02 40.967406 -112.002894 351 16303ft 350kts
27-Apr-19 12:03 41.058521 -111.969625 47 18505ft 362kts
27-Apr-19 12:04 41.110440 -111.854440 63 20161ft 386kts
27-Apr-19 12:05 41.112301 -111.716469 119 22102ft 397kts
27-Apr-19 12:06 41.042344 -111.601421 129 23920ft 408kts
27-Apr-19 12:07 40.969499 -111.483586 128 25607ft 419kts
27-Apr-19 12:08 40.911879 -111.350430 101 27136ft 429kts
27-Apr-19 12:09 40.892500 -111.194126 99 28570ft 438kts
27-Apr-19 12:10 40.873247 -111.033703 99 29899ft 448kts
27-Apr-19 12:11 40.853429 -110.869996 99 31313ft 452kts
27-Apr-19 12:12 40.833479 -110.707136 99 32996ft 449kts
27-Apr-19 12:13 40.813435 -110.545447 99 34610ft 446kts
27-Apr-19 12:14 40.793261 -110.384615 99 36057ft 443kts
27-Apr-19 12:15 40.772941 -110.224459 99 36938ft 443kts
27-Apr-19 12:16 40.752404 -110.064456 99 36936ft 441kts
27-Apr-19 12:17 40.740002 -109.903991 95 36935ft 441kts
27-Apr-19 12:18 40.728605 -109.743075 95 36936ft 441kts
27-Apr-19 12:19 40.716932 -109.582134 95 36936ft 441kts
27-Apr-19 12:20 40.705052 -109.421512 95 36936ft 441kts
27-Apr-19 12:21 40.693094 -109.260108 95 36936ft 441kts
27-Apr-19 12:22 40.681293 -109.099374 96 36936ft 441kts
27-Apr-19 12:23 40.668049 -108.938722 95 36936ft 441kts
27-Apr-19 12:24 40.655217 -108.778468 95 36936ft 441kts
27-Apr-19 12:25 40.642173 -108.617626 95 36936ft 441kts
27-Apr-19 12:26 40.628958 -108.457392 95 36936ft 441kts
27-Apr-19 12:27 40.615763 -108.300062 96 36936ft 441kts
27-Apr-19 12:28 40.597294 -108.140659 97 36936ft 441kts
27-Apr-19 12:29 40.582423 -107.980171 96 36936ft 441kts
27-Apr-19 12:30 40.568297 -107.820036 96 36936ft 441kts
27-Apr-19 12:31 40.553892 -107.660064 96 36936ft 441kts
27-Apr-19 12:32 40.539332 -107.500080 96 36936ft 441kts
27-Apr-19 12:33 40.524962 -107.340006 96 36936ft 441kts
27-Apr-19 12:34 40.514825 -107.179135 93 36936ft 441kts
27-Apr-19 12:35 40.506629 -107.019344 94 35684ft 425kts
27-Apr-19 12:36 40.498231 -106.864279 92 33866ft 429kts
27-Apr-19 12:37 40.490408 -106.707031 94 32021ft 433kts
27-Apr-19 12:38 40.481100 -106.549899 94 30167ft 429kts
27-Apr-19 12:39 40.471901 -106.395522 94 28354ft 418kts
27-Apr-19 12:40 40.463690 -106.259843 94 26777ft 408kts
27-Apr-19 12:41 40.455295 -106.108065 94 25006ft 399kts
27-Apr-19 12:42 40.444083 -105.965028 101 23458ft 388kts
27-Apr-19 12:43 40.422781 -105.828819 101 21720ft 376kts
27-Apr-19 12:44 40.401304 -105.696006 104 20131ft 367kts
27-Apr-19 12:45 40.379707 -105.571666 101 18865ft 326kts
27-Apr-19 12:46 40.361193 -105.456994 101 15976ft 322kts
27-Apr-19 12:47 40.345405 -105.344972 100 15053ft 307kts
27-Apr-19 12:48 40.330043 -105.232937 100 14938ft 312kts
27-Apr-19 12:49 40.315175 -105.125352 100 14066ft 265kts
27-Apr-19 12:50 40.302357 -105.033238 100 12987ft 252kts
27-Apr-19 12:51 40.289322 -104.939837 100 13000ft 250kts
27-Apr-19 12:52 40.276294 -104.849444 100 11887ft 250kts
27-Apr-19 12:54 40.252379 -104.768275 153 10997ft 245kts
27-Apr-19 12:55 40.186708 -104.743256 165 10076ft 241kts
27-Apr-19 12:56 40.124469 -104.722992 166 9217ft 218kts
27-Apr-19 12:57 40.072264 -104.706208 165 8324ft 172kts
27-Apr-19 12:58 40.029837 -104.694440 181 7682ft 149kts
27-Apr-19 12:59 39.988605 -104.694952 180 7146ft 147kts
27-Apr-19 13:00 39.947910 -104.695500 180 6410ft 149kts
27-Apr-19 13:01 39.907397 -104.695887 180 5611ft 143kts
27-Apr-19 13:02 39.879974 -104.696250 179 5328ft 35kts
27-Apr-19 13:03 39.875021 -104.692619 90 5328ft 16kts
27-Apr-19 13:04 39.874973 -104.685950 90 5328ft 24kts
27-Apr-19 13:05 39.871601 -104.683794 179 5328ft 6kts
27-Apr-19 13:06 39.863781 -104.683889 179 5328ft 23kts
27-Apr-19 13:07 39.861364 -104.679389 89 5328ft 20kts
27-Apr-19 13:08 39.859533 -104.675221 179 5328ft 4kts
27-Apr-19 13:08 39.859410 -104.675220 179 5328ft 0kts
27-Apr-19 13:12 39.859410 -104.675220 179 5328ft 0kts
27-Apr-19 13:14 39.859410 -104.675220 179 5328ft 0kts
27-Apr-19 13:14 39.859410 -104.675220 179 5328ft 0kts
27-Apr-19 13:15 39.859410 -104.675220 179 5328ft 0kts
27-Apr-19 13:16 39.859410 -104.675220 179 5328ft 0kts

Navigation Log

Ident Type
Flight plan parsing failed, navigation log unavailable